Dunwoody, GA (30338)

10:23 AM EDT op 30 oktober 2014 (GMT -0400)
Wyntercreek/Meadowcreek | Change Station
CLOSE
Current Station
Persoonlijk weerstation
Location: Dunwoody, GA
Geometrische hoogte: 1072 ft
Nabije weerstations

Hoogte 1072 ft 33.95 °N, 84.33 °W | Updated 13 seconds ago

Helder
Helder
49.8 °F
Voelt als 50 °F
N
0.0
Wind Variabel Wind van west
Gusts 0.0 mijl/u

Vandaag
Hoog -- | Laag -- °F
--% Kans op neerslag
Gisteren
Hoog -- | Laag -- °F
Precip. -- inches
7:54 AM 6:46 PM
Wassende halvemaan, 44% visible
Druk 30.10 inches
Zicht 10.0 mijlen
Wolken Helder
Gevoelstemperatuur 50 °F
Dauwpunt 36 °F
Vochtigheid 64%
Neerslag -999.00 inches
Dikte sneeuw Niet beschikbaar.
UV 2 van de 12
Pollen 2.30 van de 12
Luchtkwaliteit Niet beschikbaar.
Flu Activity Niet beschikbaar.
METAR KPDK 301353Z 36004KT 10SM CLR 12/05 A3010 RMK AO2 SLP193 T01220050

More Conditions Fewer Conditions

Druk 30.10 inches
Zicht 10.0 mijlen
Wolken Helder
Gevoelstemperatuur 50 °F
Dauwpunt 36 °F
Vochtigheid 64%
Neerslag -999.00 inches
Dikte sneeuw Niet beschikbaar.
UV 2 van de 12
Pollen 2.30 van de 12
Luchtkwaliteit Niet beschikbaar.
Flu Activity Niet beschikbaar.
METAR KPDK 301353Z 36004KT 10SM CLR 12/05 A3010 RMK AO2 SLP193 T01220050

More Conditions Fewer Conditions

10-Day Weather Forecast

Almanac

Astronomie

Oct. 30, 2014 Opkomst Ondergang
Werkelijke tijd
Burgerlijke schemering
Nautische schemering
Astronomische schemering
Maan
Golflengte van het zichtbare licht
Daglengte
Tomorrow will be .
, % of the Moon is Illuminated

Extremen vandaag

State Highs State Lows

Community

WunderPhotos

Upload Photos

1,766,371 foto’s ge-upload!

WunderBlogs® & News

Nearby

Luchtkwaliteit

  Luchtkwaliteit LK-index Verontreinigende stof
Not available.

Dikte sneeuw

Station Depth Geometrische hoogte

Aardbevingen

Stad Distance Mag. Time & Date
Minimum magnitude displayed is 2.5.

Watertemperatuur langs de kust

Plaats Temperatuur

Nabije weerstations